createdAt,value
2022-11-02T00:02:15.689Z,46.37
2022-11-02T00:04:43.049Z,46.35
2022-11-02T00:07:10.529Z,46.30
2022-11-02T00:09:37.934Z,46.33
2022-11-02T00:12:05.817Z,46.47
2022-11-02T00:14:33.223Z,46.38
2022-11-02T00:17:00.625Z,46.51
2022-11-02T00:19:29.039Z,46.39
2022-11-02T00:21:58.894Z,46.82
2022-11-02T00:24:26.448Z,46.75
2022-11-02T00:26:54.531Z,46.64
2022-11-02T00:29:24.285Z,46.97
2022-11-02T00:31:51.815Z,46.66
2022-11-02T00:34:19.277Z,46.72
2022-11-02T00:36:49.573Z,47.12
2022-11-02T00:39:20.545Z,46.90
2022-11-02T00:41:47.878Z,46.92
2022-11-02T00:44:15.349Z,46.93
2022-11-02T00:46:42.903Z,47.12
2022-11-02T00:49:10.344Z,47.22
2022-11-02T00:51:37.829Z,46.99
2022-11-02T00:54:05.438Z,47.04
2022-11-02T00:56:34.099Z,47.04
2022-11-02T00:59:05.085Z,47.11
2022-11-02T01:01:32.881Z,46.97
2022-11-02T01:04:00.422Z,47.45
2022-11-02T01:06:27.889Z,47.25
2022-11-02T01:08:55.334Z,47.20
2022-11-02T01:11:24.729Z,46.86
2022-11-02T01:13:52.375Z,47.45
2022-11-02T01:16:20.478Z,47.35
2022-11-02T01:18:52.250Z,47.40
2022-11-02T01:21:20.385Z,47.26
2022-11-02T01:23:48.281Z,47.21
2022-11-02T01:26:15.719Z,47.32
2022-11-02T01:28:43.509Z,47.53
2022-11-02T01:31:11.699Z,47.93
2022-11-02T01:33:43.928Z,47.46
2022-11-02T01:36:12.045Z,47.70
2022-11-02T01:38:39.554Z,47.37
2022-11-02T01:41:07.051Z,47.65
2022-11-02T01:43:36.243Z,47.79
2022-11-02T01:46:06.899Z,47.98
2022-11-02T01:48:37.331Z,47.78
2022-11-02T01:51:08.017Z,47.47
2022-11-02T01:53:38.100Z,48.02
2022-11-02T01:56:06.516Z,47.82
2022-11-02T01:58:35.719Z,47.81
2022-11-02T02:01:03.375Z,47.79
2022-11-02T02:03:32.709Z,47.45
2022-11-02T02:06:07.695Z,48.33
2022-11-02T02:08:41.259Z,47.71
2022-11-02T02:11:28.308Z,48.42
2022-11-02T02:13:59.503Z,47.94
2022-11-02T02:16:36.073Z,48.14
2022-11-02T02:19:16.008Z,48.43
2022-11-02T02:22:06.768Z,47.85
2022-11-02T02:25:14.276Z,48.48
2022-11-02T02:28:07.201Z,48.29
2022-11-02T02:30:37.545Z,48.23
2022-11-02T02:33:35.582Z,48.25
2022-11-02T02:36:07.277Z,48.40
2022-11-02T02:38:38.400Z,48.61
2022-11-02T02:41:13.936Z,48.78
2022-11-02T02:43:47.378Z,48.69
2022-11-02T02:46:41.921Z,48.66
2022-11-02T02:49:13.864Z,48.63
2022-11-02T02:51:42.084Z,48.44
2022-11-02T02:54:18.913Z,48.43
2022-11-02T02:56:55.073Z,49.02
2022-11-02T02:59:26.368Z,48.43
2022-11-02T03:01:56.257Z,48.42
2022-11-02T03:04:25.516Z,48.66
2022-11-02T03:06:56.281Z,48.79
2022-11-02T03:09:31.495Z,48.61
2022-11-02T03:12:33.436Z,48.61
2022-11-02T03:15:06.847Z,48.24
2022-11-02T03:17:34.211Z,48.82
2022-11-02T03:20:26.901Z,49.01
2022-11-02T03:23:13.110Z,48.65
2022-11-02T03:25:43.422Z,48.88
2022-11-02T03:28:21.010Z,49.33
2022-11-02T03:31:00.754Z,49.08
2022-11-02T03:33:34.576Z,49.09
2022-11-02T03:36:17.431Z,48.99
2022-11-02T03:38:59.429Z,48.68
2022-11-02T03:41:27.338Z,49.04
2022-11-02T03:44:20.646Z,49.47
2022-11-02T03:46:50.134Z,49.07
2022-11-02T03:49:19.168Z,48.93
2022-11-02T03:51:49.317Z,48.82
2022-11-02T03:54:48.658Z,49.31
2022-11-02T03:57:23.514Z,49.24
2022-11-02T03:59:51.569Z,49.04
2022-11-02T04:02:19.943Z,48.81
2022-11-02T04:04:50.617Z,49.32
2022-11-02T04:07:22.491Z,48.62
2022-11-02T04:09:49.970Z,48.88
2022-11-02T04:12:50.363Z,49.59
2022-11-02T04:15:17.897Z,49.49
2022-11-02T04:18:04.118Z,48.97
2022-11-02T04:20:31.847Z,49.07
2022-11-02T04:23:17.916Z,48.89
2022-11-02T04:25:45.435Z,49.07
2022-11-02T04:28:15.957Z,49.64
2022-11-02T04:30:50.269Z,49.09
2022-11-02T04:33:35.148Z,49.14
2022-11-02T04:36:09.078Z,49.49
2022-11-02T04:38:41.513Z,49.50
2022-11-02T04:41:37.703Z,49.44
2022-11-02T04:44:14.542Z,49.44
2022-11-02T04:46:44.984Z,49.47
2022-11-02T04:49:14.411Z,49.39
2022-11-02T04:51:48.695Z,49.28
2022-11-02T04:54:19.353Z,49.20
2022-11-02T04:56:51.189Z,49.37
2022-11-02T04:59:20.719Z,49.57
2022-11-02T05:01:48.856Z,49.24
2022-11-02T05:04:17.194Z,49.64
2022-11-02T05:06:45.178Z,49.44
2022-11-02T05:09:13.187Z,49.74
2022-11-02T05:11:44.473Z,49.46
2022-11-02T05:14:12.263Z,49.76
2022-11-02T05:16:39.691Z,49.58
2022-11-02T05:19:10.968Z,49.40
2022-11-02T05:21:40.045Z,49.70
2022-11-02T05:24:08.069Z,49.78
2022-11-02T05:26:36.203Z,49.68
2022-11-02T05:29:04.394Z,49.70
2022-11-02T05:31:33.648Z,49.60
2022-11-02T05:34:01.041Z,49.79
2022-11-02T05:36:28.856Z,49.75
2022-11-02T05:38:57.131Z,50.11
2022-11-02T05:41:25.338Z,49.58
2022-11-02T05:43:55.856Z,49.49
2022-11-02T05:46:25.311Z,49.43
2022-11-02T05:48:52.711Z,50.08
2022-11-02T05:51:20.098Z,49.58
2022-11-02T05:53:47.483Z,49.68
2022-11-02T05:56:15.910Z,49.40
2022-11-02T05:58:44.832Z,49.99
2022-11-02T06:01:12.329Z,50.02
2022-11-02T06:03:39.822Z,50.07
2022-11-02T06:06:09.366Z,50.39
2022-11-02T06:08:38.426Z,50.06
2022-11-02T06:11:11.665Z,49.95
2022-11-02T06:13:39.847Z,50.15
2022-11-02T06:16:09.671Z,49.70
2022-11-02T06:18:38.205Z,49.96
2022-11-02T06:21:06.171Z,49.76
2022-11-02T06:23:34.173Z,50.08
2022-11-02T06:26:02.206Z,50.00
2022-11-02T06:28:31.011Z,50.27
2022-11-02T06:30:59.096Z,49.97
2022-11-02T06:33:26.976Z,50.16
2022-11-02T06:35:55.230Z,50.54
2022-11-02T06:38:22.814Z,50.22
2022-11-02T06:40:57.416Z,50.38
2022-11-02T06:43:25.418Z,50.35
2022-11-02T06:45:57.255Z,50.05
2022-11-02T06:48:28.725Z,50.53
2022-11-02T06:50:58.943Z,50.11
2022-11-02T06:53:27.639Z,50.20
2022-11-02T06:55:56.170Z,49.92
2022-11-02T06:58:24.614Z,50.77
2022-11-02T07:01:04.507Z,50.34
2022-11-02T07:03:31.977Z,50.10
2022-11-02T07:05:59.848Z,50.37
2022-11-02T07:08:28.270Z,50.37
2022-11-02T07:10:56.044Z,50.41
2022-11-02T07:13:23.607Z,50.50
2022-11-02T07:15:53.190Z,50.43
2022-11-02T07:18:21.497Z,50.28
2022-11-02T07:20:48.928Z,50.74
2022-11-02T07:23:16.351Z,50.33
2022-11-02T07:25:43.793Z,50.72
2022-11-02T07:28:11.268Z,50.54
2022-11-02T07:30:38.690Z,50.84
2022-11-02T07:33:06.611Z,50.63
2022-11-02T07:35:34.380Z,50.84
2022-11-02T07:38:06.291Z,50.27
2022-11-02T07:40:35.456Z,50.68
2022-11-02T07:43:05.097Z,50.59
2022-11-02T07:45:43.079Z,50.53
2022-11-02T07:48:10.516Z,50.68
2022-11-02T07:50:37.891Z,50.66
2022-11-02T07:53:05.619Z,50.13
2022-11-02T07:55:34.122Z,50.45
2022-11-02T07:58:02.767Z,50.28
2022-11-02T08:00:32.981Z,50.44
2022-11-02T08:03:01.693Z,50.47
2022-11-02T08:05:30.163Z,50.46
2022-11-02T08:08:06.442Z,50.49
2022-11-02T08:10:37.498Z,50.63
2022-11-02T08:13:13.290Z,50.64
2022-11-02T08:15:40.759Z,50.51
2022-11-02T08:18:15.399Z,50.43
2022-11-02T08:20:43.347Z,50.24
2022-11-02T08:23:11.220Z,50.17
2022-11-02T08:25:39.807Z,50.58
2022-11-02T08:28:09.703Z,50.24
2022-11-02T08:30:37.758Z,50.31
2022-11-02T08:33:07.490Z,49.83
2022-11-02T08:35:37.545Z,50.03
2022-11-02T08:38:05.757Z,49.92
2022-11-02T08:40:34.078Z,50.08
2022-11-02T08:43:10.603Z,50.15
2022-11-02T08:46:12.757Z,50.02
2022-11-02T08:48:27.618Z,49.88
2022-11-02T08:50:56.274Z,49.86
2022-11-02T08:53:23.775Z,49.62
2022-11-02T08:55:51.264Z,49.59
2022-11-02T08:58:18.711Z,49.67
2022-11-02T09:00:46.242Z,49.39
2022-11-02T09:03:15.406Z,49.67
2022-11-02T09:05:44.567Z,49.14
2022-11-02T09:08:17.340Z,49.16
2022-11-02T09:10:46.487Z,49.37
2022-11-02T09:13:15.239Z,49.20
2022-11-02T09:15:42.710Z,49.13
2022-11-02T09:18:10.531Z,49.18
2022-11-02T09:20:37.962Z,48.98
2022-11-02T09:23:05.413Z,48.90
2022-11-02T09:25:32.871Z,48.69
2022-11-02T09:28:00.379Z,48.87
2022-11-02T09:30:28.804Z,48.57
2022-11-02T09:33:05.882Z,48.70
2022-11-02T09:35:38.927Z,48.59
2022-11-02T09:38:06.823Z,48.88
2022-11-02T09:40:43.727Z,48.31
2022-11-02T09:43:36.626Z,48.44
2022-11-02T09:46:09.639Z,48.33
2022-11-02T09:48:41.991Z,48.32
2022-11-02T09:51:09.262Z,48.82
2022-11-02T09:54:01.371Z,48.53
2022-11-02T09:56:30.626Z,48.25
2022-11-02T09:59:01.925Z,48.04
2022-11-02T10:01:55.619Z,47.97
2022-11-02T10:04:37.946Z,47.77
2022-11-02T10:07:24.001Z,47.89
2022-11-02T10:09:58.098Z,48.05
2022-11-02T10:12:41.091Z,47.68
2022-11-02T10:15:24.444Z,47.86
2022-11-02T10:17:55.500Z,47.52
2022-11-02T10:20:28.267Z,47.53
2022-11-02T10:23:03.827Z,47.54
2022-11-02T10:25:31.556Z,47.58
2022-11-02T10:28:04.509Z,47.10
2022-11-02T10:30:32.409Z,47.39
2022-11-02T10:32:59.997Z,46.97
2022-11-02T10:39:14.898Z,46.56
2022-11-02T10:42:04.705Z,46.31
2022-11-02T10:44:42.221Z,46.24
2022-11-02T10:47:09.713Z,46.53
2022-11-02T10:49:49.319Z,46.19
2022-11-02T10:52:17.524Z,46.13
2022-11-02T10:54:44.999Z,45.93
2022-11-02T10:57:14.297Z,45.55
2022-11-02T10:59:41.720Z,45.25
2022-11-02T11:02:14.093Z,45.11
2022-11-02T11:04:41.776Z,46.31
2022-11-02T11:07:18.316Z,45.40
2022-11-02T11:09:46.848Z,45.20
2022-11-02T11:12:22.398Z,44.78
2022-11-02T11:20:37.363Z,44.54
2022-11-02T11:23:24.860Z,44.91
2022-11-02T11:26:03.711Z,44.52
2022-11-02T11:28:37.895Z,44.64
2022-11-02T11:31:07.532Z,44.71
2022-11-02T11:33:43.479Z,44.50
2022-11-02T11:36:12.027Z,44.37
2022-11-02T11:38:46.991Z,44.26
2022-11-02T11:41:14.548Z,44.19
2022-11-02T11:43:42.316Z,44.30
2022-11-02T11:46:11.807Z,43.94
2022-11-02T11:48:49.607Z,44.02
2022-11-02T11:51:29.252Z,43.42
2022-11-02T11:54:28.682Z,44.26
2022-11-02T11:57:16.665Z,43.75
2022-11-02T11:59:44.049Z,44.22
2022-11-02T12:02:27.918Z,44.03
2022-11-02T12:05:14.527Z,43.53
2022-11-02T12:07:56.243Z,43.53
2022-11-02T12:10:43.020Z,43.95
2022-11-02T12:13:29.045Z,43.44
2022-11-02T12:16:14.150Z,43.73
2022-11-02T12:19:12.857Z,43.65
2022-11-02T12:22:09.980Z,43.64
2022-11-02T12:24:49.110Z,43.65
2022-11-02T12:27:43.770Z,43.23
2022-11-02T12:30:21.168Z,43.36
2022-11-02T12:32:59.289Z,43.22
2022-11-02T12:35:54.006Z,43.49
2022-11-02T12:38:59.252Z,43.49
2022-11-02T12:41:48.640Z,43.25
2022-11-02T12:44:35.787Z,42.68
2022-11-02T12:47:25.573Z,43.21
2022-11-02T12:49:56.994Z,42.56
2022-11-02T12:52:37.897Z,42.67
2022-11-02T12:55:16.748Z,42.51
2022-11-02T12:57:46.341Z,42.30
2022-11-02T13:00:20.103Z,42.03
2022-11-02T13:03:13.550Z,42.06
2022-11-02T13:05:51.255Z,41.72
2022-11-02T13:08:22.740Z,41.38
2022-11-02T13:10:59.333Z,41.33
2022-11-02T13:13:34.550Z,40.96
2022-11-02T13:16:03.427Z,41.05
2022-11-02T13:18:35.961Z,40.84
2022-11-02T13:21:05.237Z,41.21
2022-11-02T13:23:54.105Z,41.51
2022-11-02T13:26:30.326Z,40.12
2022-11-02T13:29:13.628Z,39.90
2022-11-02T13:31:45.377Z,37.87
2022-11-02T13:34:16.032Z,37.57
2022-11-02T13:36:44.198Z,37.64
2022-11-02T13:39:37.398Z,37.55
2022-11-02T13:42:23.326Z,37.53
2022-11-02T13:45:12.772Z,37.10
2022-11-02T13:48:03.219Z,37.82
2022-11-02T13:50:33.457Z,37.51
2022-11-02T13:53:05.178Z,37.55
2022-11-02T13:55:45.539Z,37.50
2022-11-02T13:58:24.538Z,37.35
2022-11-02T14:00:54.518Z,37.50
2022-11-02T14:03:47.172Z,37.70
2022-11-02T14:06:19.170Z,37.39
2022-11-02T14:08:49.948Z,37.12
2022-11-02T14:11:17.368Z,37.36
2022-11-02T14:13:53.913Z,37.29
2022-11-02T14:16:42.883Z,37.56
2022-11-02T14:19:19.139Z,37.50
2022-11-02T14:21:59.317Z,37.15
2022-11-02T14:24:32.798Z,37.14
2022-11-02T14:27:12.408Z,37.11
2022-11-02T14:29:44.852Z,36.92
2022-11-02T14:32:21.149Z,37.37
2022-11-02T14:35:00.926Z,37.06
2022-11-02T14:37:57.641Z,37.04
2022-11-02T14:40:35.623Z,37.20
2022-11-02T14:43:17.707Z,37.34
2022-11-02T14:45:57.544Z,37.28
2022-11-02T14:48:26.852Z,37.21
2022-11-02T14:51:04.889Z,37.11
2022-11-02T14:53:34.367Z,37.13
2022-11-02T14:56:01.997Z,37.36
2022-11-02T14:58:34.213Z,36.97
2022-11-02T15:01:01.933Z,38.07
2022-11-02T15:03:29.298Z,37.66
2022-11-02T15:06:05.994Z,37.19
2022-11-02T15:08:49.473Z,37.44
2022-11-02T15:11:44.946Z,37.47
2022-11-02T15:14:40.140Z,37.56
2022-11-02T15:17:10.595Z,37.56
2022-11-02T15:19:47.258Z,37.69
2022-11-02T15:22:33.287Z,37.80
2022-11-02T15:25:24.010Z,37.51
2022-11-02T15:27:52.803Z,37.61
2022-11-02T15:30:27.025Z,37.39
2022-11-02T15:33:02.049Z,37.74
2022-11-02T15:35:36.931Z,37.74
2022-11-02T15:38:27.875Z,37.44
2022-11-02T15:41:05.412Z,37.77
2022-11-02T15:43:48.463Z,38.08
2022-11-02T15:46:22.983Z,38.23
2022-11-02T15:48:57.913Z,37.90
2022-11-02T15:51:54.029Z,37.94
2022-11-02T15:54:54.082Z,37.96
2022-11-02T15:57:24.605Z,37.81
2022-11-02T15:59:57.904Z,37.70
2022-11-02T16:02:28.170Z,37.92
2022-11-02T16:04:59.362Z,37.87
2022-11-02T16:07:33.345Z,37.86
2022-11-02T16:10:20.394Z,37.99
2022-11-02T16:12:47.953Z,37.97
2022-11-02T16:15:18.749Z,38.06
2022-11-02T16:17:50.343Z,38.15
2022-11-02T16:20:21.872Z,38.13
2022-11-02T16:23:04.854Z,38.09
2022-11-02T16:25:40.928Z,38.33
2022-11-02T16:28:20.450Z,38.14
2022-11-02T16:31:17.790Z,38.35
2022-11-02T16:33:53.377Z,38.29
2022-11-02T16:36:21.351Z,38.42
2022-11-02T16:39:00.493Z,38.30
2022-11-02T16:41:32.884Z,38.54
2022-11-02T16:44:27.423Z,38.48
2022-11-02T16:47:15.789Z,38.31
2022-11-02T16:50:03.973Z,38.34
2022-11-02T16:52:36.086Z,38.37
2022-11-02T16:55:49.706Z,38.45
2022-11-02T16:58:23.902Z,38.67
2022-11-02T17:00:59.859Z,38.56
2022-11-02T17:03:30.982Z,38.59
2022-11-02T17:06:00.626Z,38.45
2022-11-02T17:08:31.128Z,38.85
2022-11-02T17:11:00.437Z,38.85
2022-11-02T17:13:32.060Z,38.81
2022-11-02T17:16:10.749Z,38.93
2022-11-02T17:18:38.249Z,38.92
2022-11-02T17:21:22.232Z,38.91
2022-11-02T17:23:50.026Z,39.08
2022-11-02T17:26:25.657Z,39.41
2022-11-02T17:29:01.331Z,39.26
2022-11-02T17:31:32.612Z,39.32
2022-11-02T17:34:11.268Z,39.42
2022-11-02T17:36:43.115Z,39.42
2022-11-02T17:39:18.448Z,39.62
2022-11-02T17:42:08.072Z,39.62
2022-11-02T17:44:35.477Z,39.52
2022-11-02T17:47:08.842Z,39.51
2022-11-02T17:49:36.268Z,39.59
2022-11-02T17:52:03.960Z,39.56
2022-11-02T17:54:31.362Z,39.66
2022-11-02T17:56:59.483Z,39.81
2022-11-02T17:59:26.868Z,39.85
2022-11-02T18:01:54.469Z,39.69
2022-11-02T18:04:21.951Z,39.87
2022-11-02T18:06:49.409Z,39.73
2022-11-02T18:09:21.818Z,39.83
2022-11-02T18:11:49.159Z,40.01
2022-11-02T18:14:17.041Z,40.08
2022-11-02T18:16:45.337Z,40.10
2022-11-02T18:19:12.823Z,40.24
2022-11-02T18:21:40.305Z,40.07
2022-11-02T18:24:07.958Z,40.11
2022-11-02T18:26:35.897Z,39.98
2022-11-02T18:29:04.359Z,39.86
2022-11-02T18:31:33.180Z,40.13
2022-11-02T18:34:00.557Z,40.35
2022-11-02T18:36:28.064Z,40.42
2022-11-02T18:38:55.530Z,40.39
2022-11-02T18:41:32.205Z,40.43
2022-11-02T18:44:05.630Z,40.62
2022-11-02T18:46:35.928Z,40.68
2022-11-02T18:49:03.871Z,40.74
2022-11-02T18:51:31.386Z,40.69
2022-11-02T18:54:01.080Z,40.75
2022-11-02T18:56:29.422Z,40.94
2022-11-02T18:58:57.030Z,40.82
2022-11-02T19:01:25.712Z,41.07
2022-11-02T19:03:55.765Z,40.83
2022-11-02T19:06:42.756Z,40.87
2022-11-02T19:09:21.113Z,41.00
2022-11-02T19:12:01.213Z,41.16
2022-11-02T19:14:36.623Z,41.07
2022-11-02T19:17:05.091Z,41.17
2022-11-02T19:19:33.091Z,41.01
2022-11-02T19:22:03.596Z,41.04
2022-11-02T19:24:31.230Z,41.32
2022-11-02T19:26:59.003Z,41.22
2022-11-02T19:29:26.484Z,41.19
2022-11-02T19:31:53.869Z,41.00
2022-11-02T19:34:21.291Z,41.23
2022-11-02T19:36:48.825Z,41.16
2022-11-02T19:39:16.347Z,41.42
2022-11-02T19:41:43.812Z,41.28
2022-11-02T19:44:11.308Z,41.52
2022-11-02T19:46:38.797Z,41.53
2022-11-02T19:49:06.234Z,41.62
2022-11-02T19:51:33.696Z,41.68
2022-11-02T19:54:02.363Z,41.75
2022-11-02T19:56:31.892Z,41.89
2022-11-02T19:58:59.973Z,41.81
2022-11-02T20:01:31.868Z,41.83
2022-11-02T20:03:59.345Z,41.93
2022-11-02T20:06:36.123Z,41.99
2022-11-02T20:09:05.287Z,41.70
2022-11-02T20:11:33.233Z,41.89
2022-11-02T20:14:02.658Z,42.19
2022-11-02T20:16:30.199Z,41.96
2022-11-02T20:18:59.086Z,42.11
2022-11-02T20:21:33.282Z,42.01
2022-11-02T20:24:03.496Z,42.14
2022-11-02T20:26:33.438Z,42.40
2022-11-02T20:29:02.225Z,42.41
2022-11-02T20:31:36.019Z,42.51
2022-11-02T20:34:05.654Z,42.48
2022-11-02T20:36:33.212Z,42.50
2022-11-02T20:39:03.184Z,42.58
2022-11-02T20:41:31.763Z,42.59
2022-11-02T20:43:59.840Z,42.97
2022-11-02T20:46:38.921Z,42.41
2022-11-02T20:49:20.154Z,42.51
2022-11-02T20:51:56.968Z,42.27
2022-11-02T20:54:25.356Z,42.54
2022-11-02T20:56:53.259Z,42.68
2022-11-02T20:59:21.134Z,42.54
2022-11-02T21:01:48.790Z,42.57
2022-11-02T21:04:20.920Z,42.43
2022-11-02T21:06:49.953Z,42.59
2022-11-02T21:09:18.088Z,42.77
2022-11-02T21:12:03.997Z,42.63
2022-11-02T21:14:31.532Z,42.72
2022-11-02T21:16:59.013Z,42.90
2022-11-02T21:19:26.558Z,43.00
2022-11-02T21:21:59.391Z,42.80
2022-11-02T21:24:27.578Z,43.09
2022-11-02T21:26:55.100Z,42.83
2022-11-02T21:29:22.737Z,42.77
2022-11-02T21:31:50.294Z,43.05
2022-11-02T21:34:17.777Z,42.83
2022-11-02T21:36:45.192Z,43.14
2022-11-02T21:39:12.675Z,43.08
2022-11-02T21:41:40.154Z,43.15
2022-11-02T21:44:07.956Z,42.91
2022-11-02T21:46:35.857Z,43.24
2022-11-02T21:49:03.525Z,43.88
2022-11-02T21:51:31.031Z,43.34
2022-11-02T21:53:58.582Z,43.27
2022-11-02T21:56:27.738Z,43.53
2022-11-02T21:58:56.080Z,43.30
2022-11-02T22:01:44.541Z,43.23
2022-11-02T22:04:14.485Z,43.43
2022-11-02T22:06:42.556Z,43.35
2022-11-02T22:09:12.169Z,43.29
2022-11-02T22:11:40.267Z,43.39
2022-11-02T22:14:07.700Z,43.23
2022-11-02T22:16:42.640Z,43.83
2022-11-02T22:19:15.321Z,43.66
2022-11-02T22:21:44.750Z,43.96
2022-11-02T22:24:12.469Z,43.59
2022-11-02T22:26:40.540Z,43.69
2022-11-02T22:29:08.531Z,43.67
2022-11-02T22:31:39.126Z,43.84
2022-11-02T22:34:08.240Z,43.25
2022-11-02T22:36:36.805Z,43.97
2022-11-02T22:39:06.277Z,43.71
2022-11-02T22:41:37.645Z,43.94
2022-11-02T22:44:16.676Z,43.87
2022-11-02T22:46:46.128Z,44.01
2022-11-02T22:49:14.987Z,43.82
2022-11-02T22:51:47.791Z,43.95
2022-11-02T22:54:17.262Z,43.86
2022-11-02T22:56:46.717Z,44.02
2022-11-02T22:59:14.587Z,43.97
2022-11-02T23:01:42.409Z,43.98
2022-11-02T23:04:10.804Z,44.04
2022-11-02T23:06:38.714Z,44.06
2022-11-02T23:09:06.300Z,44.23
2022-11-02T23:11:36.731Z,44.41
2022-11-02T23:14:12.816Z,44.19
2022-11-02T23:16:41.067Z,44.00
2022-11-02T23:19:28.746Z,44.37
2022-11-02T23:22:26.133Z,44.39
2022-11-02T23:25:14.256Z,44.10
2022-11-02T23:28:13.145Z,44.29
2022-11-02T23:31:00.183Z,44.38
2022-11-02T23:33:32.392Z,44.63
2022-11-02T23:36:13.205Z,44.20
2022-11-02T23:39:04.087Z,44.26
2022-11-02T23:41:33.255Z,44.33
2022-11-02T23:44:14.254Z,44.79
2022-11-02T23:46:45.823Z,44.66
2022-11-02T23:49:13.630Z,44.66
2022-11-02T23:51:59.487Z,44.80
2022-11-02T23:54:45.592Z,44.61
2022-11-02T23:57:13.052Z,44.86
2022-11-02T23:59:40.488Z,44.83
